Time;durP1;ratioP1;P1;durP2;ratioP2;P2;SDS_P1;SDS_P2;PMS_P1;PMS_P2;Temp;Humidity;BMP_temperature;BMP_pressure;BME280_temperature;BME280_humidity;BME280_pressure;Samples;Min_cycle;Max_cycle;Signal;HPM_P1;HPM_P2
2022/10/12 00:02:03;;;;;;;17.70;7.23;;;11.30;17.20;;;;;;4953847;29;20220;-83
2022/10/12 00:04:29;;;;;;;14.40;7.67;;;11.30;15.10;;;;;;4953595;28;20347;-81
2022/10/12 00:06:55;;;;;;;14.83;7.27;;;11.20;16.30;;;;;;4958841;29;20267;-84
2022/10/12 00:09:20;;;;;;;16.00;7.37;;;11.30;17.70;;;;;;4958604;28;20181;-81
2022/10/12 00:11:46;;;;;;;15.57;7.70;;;11.30;17.30;;;;;;4958333;28;20200;-81
2022/10/12 00:14:11;;;;;;;12.47;7.77;;;11.30;19.50;;;;;;4957880;28;20590;-82
2022/10/12 00:16:37;;;;;;;13.87;7.10;;;11.10;20.80;;;;;;4957574;29;20587;-82
2022/10/12 00:19:03;;;;;;;12.43;6.97;;;11.10;24.00;;;;;;4958957;28;20191;-81
2022/10/12 00:21:29;;;;;;;13.07;7.43;;;10.90;27.00;;;;;;4960754;29;20212;-82
2022/10/12 00:24:00;;;;;;;10.90;7.00;;;11.10;27.70;;;;;;4959724;28;20215;-83
2022/10/12 00:26:27;;;;;;;13.90;7.37;;;10.90;28.20;;;;;;4962724;28;20251;-82
2022/10/12 00:28:56;;;;;;;13.93;7.37;;;10.80;31.50;;;;;;4962478;29;20172;-81
2022/10/12 00:31:21;;;;;;;14.07;7.43;;;10.60;35.00;;;;;;4965260;28;20562;-83
2022/10/12 00:33:47;;;;;;;12.80;7.00;;;10.60;39.20;;;;;;4964384;29;20265;-83
2022/10/12 00:36:23;;;;;;;15.10;7.30;;;10.70;38.40;;;;;;4960027;28;20168;-83
2022/10/12 00:38:50;;;;;;;17.63;8.17;;;10.80;38.10;;;;;;4961063;29;20167;-81
2022/10/12 00:41:18;;;;;;;16.67;7.37;;;10.80;38.20;;;;;;4958602;29;20678;-81
2022/10/12 00:43:45;;;;;;;16.17;7.63;;;10.70;40.10;;;;;;4957252;28;20188;-81
2022/10/12 00:46:18;;;;;;;16.97;7.43;;;10.70;41.70;;;;;;4955662;28;20180;-82
2022/10/12 00:48:46;;;;;;;14.90;7.07;;;10.60;44.20;;;;;;4957739;29;20180;-82
2022/10/12 00:51:13;;;;;;;13.13;7.20;;;10.50;45.10;;;;;;4957457;29;20172;-82
2022/10/12 00:53:46;;;;;;;13.37;6.70;;;10.40;48.00;;;;;;4957370;29;20165;-83
2022/10/12 00:56:19;;;;;;;13.87;8.10;;;10.20;52.80;;;;;;4956747;28;20177;-84
2022/10/12 00:58:47;;;;;;;15.53;7.60;;;10.30;55.30;;;;;;4956942;29;20255;-83
2022/10/12 01:01:13;;;;;;;12.50;6.90;;;10.40;57.70;;;;;;4955011;28;20229;-82
2022/10/12 01:03:39;;;;;;;13.90;6.60;;;10.20;59.40;;;;;;4956355;28;20591;-81
2022/10/12 01:06:07;;;;;;;16.67;7.80;;;10.10;61.50;;;;;;4957183;28;20220;-82
2022/10/12 01:08:33;;;;;;;15.47;7.40;;;10.20;64.70;;;;;;4956324;28;20172;-84
2022/10/12 01:10:58;;;;;;;15.90;7.10;;;10.20;63.30;;;;;;4957392;29;20562;-80
2022/10/12 01:13:25;;;;;;;14.83;8.00;;;10.30;61.20;;;;;;4956884;28;20251;-81
2022/10/12 01:16:02;;;;;;;16.30;7.43;;;10.30;62.10;;;;;;4967685;28;20168;-80
2022/10/12 01:18:59;;;;;;;14.97;8.07;;;10.20;63.70;;;;;;4970029;29;20176;-79
2022/10/12 01:21:25;;;;;;;15.10;7.97;;;10.30;64.70;;;;;;4974597;28;20232;-79
2022/10/12 01:24:17;;;;;;;16.33;7.70;;;10.50;61.60;;;;;;4970050;29;20231;-80
2022/10/12 01:27:13;;;;;;;17.03;7.23;;;10.70;57.50;;;;;;4982452;28;20237;-83
2022/10/12 01:30:05;;;;;;;18.73;8.17;;;10.90;53.30;;;;;;4995691;28;20179;-85
2022/10/12 01:33:26;;;;;;;14.13;7.80;;;11.10;47.00;;;;;;4996556;28;20586;-84
2022/10/12 01:35:54;;;;;;;15.13;8.53;;;11.10;44.40;;;;;;5014294;28;20182;-85
2022/10/12 01:38:32;;;;;;;15.63;7.40;;;11.10;42.90;;;;;;5006787;28;20186;-83
2022/10/12 01:41:17;;;;;;;12.53;7.23;;;11.00;42.60;;;;;;4995489;28;20199;-83
2022/10/12 01:43:44;;;;;;;17.93;7.47;;;11.00;42.90;;;;;;4997479;28;20273;-84
2022/10/12 01:46:16;;;;;;;17.57;8.27;;;11.10;41.00;;;;;;4998378;28;20167;-82
2022/10/12 01:48:45;;;;;;;17.07;7.73;;;11.00;40.70;;;;;;4999149;28;20179;-84
2022/10/12 01:51:16;;;;;;;15.57;7.70;;;10.90;44.10;;;;;;4997255;28;20202;-84
2022/10/12 01:53:59;;;;;;;14.77;7.67;;;10.70;46.30;;;;;;4994955;28;20189;-85
2022/10/12 01:56:35;;;;;;;18.40;8.47;;;10.60;50.20;;;;;;4996066;28;20167;-85
2022/10/12 01:59:29;;;;;;;13.63;7.73;;;10.60;50.40;;;;;;4994769;28;20170;-85
2022/10/12 02:02:00;;;;;;;12.73;7.80;;;10.60;51.20;;;;;;5003181;28;20222;-86
2022/10/12 02:04:50;;;;;;;15.47;7.53;;;10.50;54.40;;;;;;4995408;28;20313;-82
2022/10/12 02:07:31;;;;;;;15.70;8.03;;;10.50;56.40;;;;;;4993879;28;20187;-84
2022/10/12 02:09:58;;;;;;;17.33;9.20;;;10.30;60.60;;;;;;4994023;28;20265;-84
2022/10/12 02:12:27;;;;;;;16.83;8.97;;;10.50;64.10;;;;;;4995118;28;20172;-82
2022/10/12 02:14:57;;;;;;;12.90;7.73;;;10.40;63.60;;;;;;4996168;28;20220;-84
2022/10/12 02:17:23;;;;;;;13.93;9.10;;;10.60;60.90;;;;;;4992530;28;20233;-84
2022/10/12 02:19:56;;;;;;;15.97;8.77;;;10.70;55.60;;;;;;4996115;28;20175;-84
2022/10/12 02:22:25;;;;;;;13.23;8.57;;;10.90;50.00;;;;;;4994819;28;20214;-84
2022/10/12 02:24:54;;;;;;;19.37;8.67;;;11.10;47.20;;;;;;4994443;28;20230;-84
2022/10/12 02:27:22;;;;;;;15.20;8.77;;;10.90;45.70;;;;;;4994235;28;20203;-84
2022/10/12 02:29:48;;;;;;;16.47;9.23;;;10.90;46.50;;;;;;4995197;28;20223;-85
2022/10/12 02:32:29;;;;;;;16.57;8.63;;;10.90;44.80;;;;;;4995381;28;20175;-84
2022/10/12 02:35:04;;;;;;;13.77;8.67;;;10.90;43.90;;;;;;4993693;28;20198;-85
2022/10/12 02:37:45;;;;;;;16.10;8.90;;;11.00;44.00;;;;;;4994572;28;20174;-85
2022/10/12 02:40:34;;;;;;;14.10;9.00;;;11.00;41.80;;;;;;4995610;28;20217;-84
2022/10/12 02:43:14;;;;;;;14.77;8.43;;;11.00;39.40;;;;;;4993300;28;20301;-84
2022/10/12 02:45:42;;;;;;;15.37;8.83;;;10.90;39.30;;;;;;4991918;28;20214;-82
2022/10/12 02:48:13;;;;;;;12.00;8.63;;;10.90;38.00;;;;;;4992883;28;20183;-82
2022/10/12 02:50:39;;;;;;;14.60;9.47;;;10.90;36.50;;;;;;4992327;28;20246;-84
2022/10/12 02:53:06;;;;;;;18.00;9.40;;;11.00;34.00;;;;;;4993960;28;20583;-83
2022/10/12 02:55:37;;;;;;;17.37;9.33;;;10.90;31.10;;;;;;4992930;28;20265;-83
2022/10/12 02:58:03;;;;;;;15.57;9.53;;;10.90;29.80;;;;;;4991466;28;20178;-84
2022/10/12 03:00:32;;;;;;;15.20;8.87;;;10.90;30.40;;;;;;4993932;28;20179;-83
2022/10/12 03:02:58;;;;;;;12.70;8.93;;;10.90;30.40;;;;;;4995156;28;20234;-85
2022/10/12 03:05:23;;;;;;;14.33;8.87;;;10.90;30.30;;;;;;4993510;28;20171;-85
2022/10/12 03:07:49;;;;;;;14.57;8.33;;;10.90;31.10;;;;;;4993042;28;20179;-81
2022/10/12 03:10:14;;;;;;;16.13;9.37;;;11.00;30.50;;;;;;4992328;28;20178;-84
2022/10/12 03:12:40;;;;;;;18.40;9.30;;;10.80;29.40;;;;;;4994259;28;20178;-83
2022/10/12 03:15:06;;;;;;;16.20;9.63;;;11.00;29.90;;;;;;4994280;28;20175;-84
2022/10/12 03:17:32;;;;;;;18.30;10.33;;;11.00;28.40;;;;;;4993865;28;20171;-85
2022/10/12 03:19:57;;;;;;;18.07;10.10;;;11.00;27.30;;;;;;4993635;28;20195;-84
2022/10/12 03:22:23;;;;;;;18.37;10.50;;;10.90;28.00;;;;;;4993061;28;20674;-82
2022/10/12 03:24:49;;;;;;;14.57;9.93;;;10.90;30.60;;;;;;4993095;28;20171;-83
2022/10/12 03:27:15;;;;;;;13.83;9.13;;;10.90;31.70;;;;;;4992821;28;20185;-82
2022/10/12 03:29:41;;;;;;;17.83;10.03;;;10.90;30.20;;;;;;4993642;28;20257;-85
2022/10/12 03:32:06;;;;;;;15.30;9.03;;;10.90;30.00;;;;;;4993884;28;20202;-84
2022/10/12 03:34:32;;;;;;;20.23;9.90;;;10.90;29.20;;;;;;4993621;28;20171;-84
2022/10/12 03:36:58;;;;;;;18.67;8.90;;;11.00;28.20;;;;;;4992998;28;20222;-84
2022/10/12 03:39:24;;;;;;;14.33;9.17;;;11.00;28.10;;;;;;4994142;28;20181;-80
2022/10/12 03:41:49;;;;;;;17.13;9.43;;;10.90;28.90;;;;;;4997476;28;20254;-82
2022/10/12 03:44:15;;;;;;;14.17;9.20;;;10.90;29.70;;;;;;4995895;28;20589;-83
2022/10/12 03:46:40;;;;;;;12.20;8.77;;;10.90;30.30;;;;;;4995604;28;20175;-83
2022/10/12 03:49:06;;;;;;;14.83;9.13;;;10.90;30.40;;;;;;4996932;28;20623;-81
2022/10/12 03:51:32;;;;;;;13.33;8.90;;;10.90;29.60;;;;;;4997931;28;20233;-80
2022/10/12 03:53:57;;;;;;;15.70;9.63;;;10.80;29.30;;;;;;4996702;28;20729;-82
2022/10/12 03:56:23;;;;;;;18.87;9.73;;;10.90;29.20;;;;;;4996306;28;20261;-81
2022/10/12 03:58:49;;;;;;;14.70;9.13;;;10.80;27.50;;;;;;4995249;28;20202;-82
2022/10/12 04:01:14;;;;;;;19.67;9.30;;;10.80;27.60;;;;;;4996306;28;20212;-82
2022/10/12 04:03:40;;;;;;;13.37;8.50;;;10.80;27.40;;;;;;4996816;28;20190;-84
2022/10/12 04:06:05;;;;;;;15.37;9.33;;;10.80;26.10;;;;;;4996667;28;20535;-83
2022/10/12 04:08:31;;;;;;;15.13;9.43;;;10.80;26.40;;;;;;4997470;28;20174;-82
2022/10/12 04:10:57;;;;;;;17.47;9.57;;;10.90;23.20;;;;;;4997295;28;20221;-81
2022/10/12 04:13:23;;;;;;;16.87;9.33;;;10.90;21.30;;;;;;4996835;28;20262;-81
2022/10/12 04:15:49;;;;;;;18.77;9.27;;;10.90;20.20;;;;;;4996838;28;20182;-83
2022/10/12 04:18:15;;;;;;;15.10;9.13;;;10.90;20.60;;;;;;4996287;28;20179;-84
2022/10/12 04:20:40;;;;;;;15.07;8.83;;;10.80;22.30;;;;;;4996648;28;20178;-82
2022/10/12 04:23:06;;;;;;;13.80;9.00;;;10.70;26.10;;;;;;4995763;28;20181;-83
2022/10/12 04:25:32;;;;;;;16.63;9.63;;;10.70;27.20;;;;;;4996695;28;20198;-81
2022/10/12 04:27:57;;;;;;;18.87;9.90;;;10.60;28.70;;;;;;4997607;28;20185;-81
2022/10/12 04:30:23;;;;;;;14.90;8.97;;;10.60;30.30;;;;;;4995817;28;20816;-84
2022/10/12 04:32:51;;;;;;;14.23;8.93;;;10.60;30.70;;;;;;5006026;28;20175;-83
2022/10/12 04:35:16;;;;;;;12.83;9.43;;;10.50;31.10;;;;;;5011752;28;20247;-80
2022/10/12 04:37:42;;;;;;;15.33;9.70;;;10.70;31.50;;;;;;5020364;28;20190;-82
2022/10/12 04:40:08;;;;;;;16.73;9.20;;;10.50;33.40;;;;;;5011285;28;20182;-81
2022/10/12 04:42:34;;;;;;;15.70;10.47;;;10.50;34.40;;;;;;4999675;28;20230;-83
2022/10/12 04:45:03;;;;;;;13.70;8.67;;;10.50;33.70;;;;;;4998166;28;20566;-83
2022/10/12 04:47:47;;;;;;;15.93;9.00;;;10.50;32.50;;;;;;4997000;28;20167;-83
2022/10/12 04:50:13;;;;;;;16.13;8.97;;;10.40;33.00;;;;;;4996724;28;20195;-82
2022/10/12 04:52:38;;;;;;;13.13;8.13;;;10.50;31.80;;;;;;4995379;28;20199;-82
2022/10/12 04:55:05;;;;;;;16.90;9.20;;;10.50;32.80;;;;;;4996390;28;20605;-80
2022/10/12 04:57:30;;;;;;;14.47;8.90;;;10.40;30.10;;;;;;4996049;28;20278;-81
2022/10/12 04:59:56;;;;;;;22.10;10.60;;;10.40;30.60;;;;;;4996607;28;20249;-84
2022/10/12 05:02:21;;;;;;;13.50;8.67;;;10.40;30.00;;;;;;4994638;28;20262;-80
2022/10/12 05:04:47;;;;;;;13.13;9.03;;;10.40;27.40;;;;;;4996266;28;20554;-82
2022/10/12 05:07:14;;;;;;;16.33;8.13;;;10.40;25.50;;;;;;4995709;28;20179;-82
2022/10/12 05:09:40;;;;;;;14.50;7.77;;;10.30;25.80;;;;;;4996034;28;20171;-81
2022/10/12 05:12:05;;;;;;;12.40;8.53;;;10.50;23.90;;;;;;4994391;28;20701;-82
2022/10/12 05:14:31;;;;;;;18.10;8.60;;;10.30;22.80;;;;;;4996209;28;20179;-81
2022/10/12 05:16:56;;;;;;;14.10;7.87;;;10.30;23.00;;;;;;4994375;28;20179;-81
2022/10/12 05:19:23;;;;;;;15.70;8.87;;;10.30;22.20;;;;;;4996702;28;20207;-82
2022/10/12 05:21:49;;;;;;;18.97;10.07;;;10.10;24.00;;;;;;4996314;28;20640;-81
2022/10/12 05:24:15;;;;;;;16.93;10.43;;;10.20;22.50;;;;;;4996717;28;20175;-81
2022/10/12 05:26:40;;;;;;;15.17;9.60;;;10.20;21.70;;;;;;4996432;28;20263;-82
2022/10/12 05:29:06;;;;;;;17.53;10.23;;;10.00;25.70;;;;;;4996350;28;20190;-80
2022/10/12 05:31:32;;;;;;;20.30;10.87;;;9.90;28.50;;;;;;4996969;28;20571;-81
2022/10/12 05:33:57;;;;;;;21.50;10.60;;;10.00;30.10;;;;;;4974356;28;20215;-80
2022/10/12 05:36:23;;;;;;;15.70;10.87;;;9.90;30.40;;;;;;4974652;28;20175;-82
2022/10/12 05:38:49;;;;;;;19.03;9.90;;;9.90;29.50;;;;;;4979275;28;20167;-79
2022/10/12 05:41:14;;;;;;;18.53;9.67;;;9.90;29.10;;;;;;5012449;28;20200;-81
2022/10/12 05:43:40;;;;;;;17.57;9.93;;;10.20;27.50;;;;;;4987250;28;20171;-84
2022/10/12 05:46:05;;;;;;;17.10;10.00;;;10.00;27.50;;;;;;4967761;28;20238;-81
2022/10/12 05:48:32;;;;;;;17.13;8.80;;;9.90;29.70;;;;;;4962749;28;20248;-81
2022/10/12 05:50:58;;;;;;;15.83;9.47;;;10.00;31.70;;;;;;4969022;28;20639;-81
2022/10/12 05:53:23;;;;;;;16.77;10.47;;;9.90;33.20;;;;;;4977458;28;20175;-82
2022/10/12 05:55:54;;;;;;;15.70;9.23;;;10.00;32.40;;;;;;4977036;28;20247;-81
2022/10/12 05:58:22;;;;;;;17.33;9.77;;;10.00;31.80;;;;;;4973447;28;20191;-81
2022/10/12 06:00:54;;;;;;;19.30;9.20;;;10.00;32.10;;;;;;4964911;28;20159;-80
2022/10/12 06:03:20;;;;;;;15.70;9.67;;;9.90;36.30;;;;;;4970404;28;20781;-82
2022/10/12 06:05:47;;;;;;;14.90;9.30;;;9.90;37.90;;;;;;4967329;28;20225;-82
2022/10/12 06:08:13;;;;;;;15.20;9.10;;;9.80;39.20;;;;;;4971225;28;20183;-84
2022/10/12 06:10:50;;;;;;;19.50;9.63;;;9.70;40.80;;;;;;4974144;28;20179;-83
2022/10/12 06:13:18;;;;;;;22.80;10.40;;;9.80;42.60;;;;;;4975454;28;20183;-82
2022/10/12 06:15:45;;;;;;;20.20;9.33;;;9.80;42.30;;;;;;4974105;28;20187;-83
2022/10/12 06:18:11;;;;;;;16.40;8.97;;;10.00;41.90;;;;;;4973955;28;20163;-80
2022/10/12 06:20:37;;;;;;;15.73;9.20;;;9.90;42.20;;;;;;4974988;28;20597;-82
2022/10/12 06:23:04;;;;;;;17.70;9.83;;;9.90;42.70;;;;;;4975293;28;20179;-79
2022/10/12 06:25:29;;;;;;;20.00;9.03;;;9.90;41.80;;;;;;4973630;28;20910;-82
2022/10/12 06:27:55;;;;;;;20.53;9.30;;;10.00;40.60;;;;;;4977521;28;20183;-80
2022/10/12 06:30:21;;;;;;;17.67;9.47;;;10.00;39.20;;;;;;4967562;28;20203;-78
2022/10/12 06:32:47;;;;;;;19.07;10.50;;;10.00;38.80;;;;;;4971641;28;20275;-81
2022/10/12 06:35:12;;;;;;;19.87;10.90;;;10.00;39.60;;;;;;4970489;28;20182;-81
2022/10/12 06:37:38;;;;;;;14.53;9.07;;;10.10;38.80;;;;;;4967137;28;20195;-80
2022/10/12 06:40:04;;;;;;;17.93;9.03;;;10.20;36.00;;;;;;4955589;28;20259;-84
2022/10/12 06:42:30;;;;;;;25.97;9.87;;;10.20;37.90;;;;;;4955259;28;20223;-84
2022/10/12 06:44:56;;;;;;;18.83;9.50;;;10.20;36.10;;;;;;4973214;28;20190;-80
2022/10/12 06:47:22;;;;;;;21.53;9.73;;;10.20;35.20;;;;;;4974506;28;20180;-80
2022/10/12 06:49:47;;;;;;;24.87;10.37;;;10.20;35.80;;;;;;4973978;28;20191;-82
2022/10/12 06:52:13;;;;;;;24.33;10.20;;;10.20;34.30;;;;;;4974371;28;20167;-79
2022/10/12 06:54:40;;;;;;;21.83;9.37;;;10.40;35.10;;;;;;4970291;28;20184;-80
2022/10/12 06:57:06;;;;;;;24.57;10.07;;;10.30;33.20;;;;;;4972087;28;20184;-80
2022/10/12 06:59:31;;;;;;;24.27;10.37;;;10.40;33.30;;;;;;4955166;28;20667;-80
2022/10/12 07:01:57;;;;;;;19.70;9.50;;;10.50;28.40;;;;;;4973157;28;20223;-83
2022/10/12 07:04:23;;;;;;;19.70;9.87;;;10.60;25.80;;;;;;4971211;28;20624;-79
2022/10/12 07:06:49;;;;;;;28.90;9.43;;;10.60;24.00;;;;;;4974549;28;20683;-81
2022/10/12 07:09:16;;;;;;;21.20;9.47;;;10.60;24.30;;;;;;4974403;28;20175;-79
2022/10/12 07:11:41;;;;;;;16.30;9.67;;;10.60;24.00;;;;;;4977636;28;20188;-82
2022/10/12 07:14:07;;;;;;;22.93;10.23;;;10.80;24.00;;;;;;4974921;28;20183;-83
2022/10/12 07:16:33;;;;;;;27.17;9.90;;;10.70;22.30;;;;;;4973949;28;20270;-79
2022/10/12 07:18:59;;;;;;;24.23;9.93;;;10.90;20.40;;;;;;4975205;28;20250;-78
2022/10/12 07:21:25;;;;;;;22.80;9.20;;;10.90;16.40;;;;;;4977126;28;20215;-77
2022/10/12 07:23:51;;;;;;;23.27;9.50;;;10.90;16.10;;;;;;4976865;28;20655;-78
2022/10/12 07:26:17;;;;;;;20.63;10.10;;;11.00;16.50;;;;;;4975494;28;20259;-79
2022/10/12 07:28:43;;;;;;;20.47;10.07;;;11.00;12.50;;;;;;4972971;28;20222;-80
2022/10/12 07:31:09;;;;;;;20.00;8.73;;;11.10;2.10;;;;;;4973422;28;20187;-79
2022/10/12 07:33:37;;;;;;;19.70;9.60;;;11.10;1.00;;;;;;4970207;28;20180;-80
2022/10/12 07:36:04;;;;;;;17.73;8.80;;;11.00;9.40;;;;;;4966859;28;20175;-79
2022/10/12 07:38:31;;;;;;;19.47;8.23;;;11.00;11.30;;;;;;4973371;28;20172;-80
2022/10/12 07:41:01;;;;;;;23.90;9.33;;;11.00;13.30;;;;;;4973410;28;20175;-79
2022/10/12 07:43:29;;;;;;;17.70;9.13;;;11.00;15.10;;;;;;4974722;28;20172;-79
2022/10/12 07:45:55;;;;;;;22.70;9.37;;;11.10;15.90;;;;;;4969434;28;20250;-82
2022/10/12 07:48:26;;;;;;;19.67;9.20;;;11.20;17.10;;;;;;4975417;28;20211;-89
2022/10/12 07:50:52;;;;;;;17.03;7.80;;;11.30;17.80;;;;;;4975482;28;20236;-81
2022/10/12 07:53:19;;;;;;;16.20;8.33;;;11.20;16.50;;;;;;4979842;28;20173;-84
2022/10/12 07:55:45;;;;;;;18.53;9.03;;;11.50;16.10;;;;;;4974395;28;20242;-84
2022/10/12 07:58:11;;;;;;;18.57;9.57;;;11.40;17.20;;;;;;4970671;28;20193;-82
2022/10/12 08:00:37;;;;;;;18.73;8.50;;;11.40;17.00;;;;;;4972982;28;20182;-83
2022/10/12 08:03:03;;;;;;;18.67;8.23;;;11.40;15.40;;;;;;4973226;28;20216;-82
2022/10/12 08:05:29;;;;;;;23.07;9.13;;;11.70;13.70;;;;;;4973789;28;20182;-81
2022/10/12 08:07:59;;;;;;;18.97;8.03;;;11.60;11.70;;;;;;4957451;28;20184;-83
2022/10/12 08:10:25;;;;;;;16.10;7.40;;;11.70;11.20;;;;;;4966729;28;20624;-82
2022/10/12 08:12:50;;;;;;;17.57;7.67;;;11.80;7.00;;;;;;4968295;28;20191;-84
2022/10/12 08:15:16;;;;;;;16.03;7.57;;;11.70;7.10;;;;;;4974286;28;20175;-82
2022/10/12 08:17:42;;;;;;;13.83;6.93;;;11.60;11.80;;;;;;4972549;28;20352;-82
2022/10/12 08:20:08;;;;;;;13.27;7.67;;;11.50;14.80;;;;;;4973404;28;20302;-81
2022/10/12 08:22:33;;;;;;;17.70;7.53;;;11.60;14.40;;;;;;4970966;28;20223;-83
2022/10/12 08:24:59;;;;;;;12.50;6.97;;;11.70;10.00;;;;;;4969057;28;20190;-83
2022/10/12 08:27:28;;;;;;;19.33;7.40;;;11.70;8.10;;;;;;4973439;28;20266;-83
2022/10/12 08:29:53;;;;;;;16.87;7.70;;;11.80;9.90;;;;;;4964122;28;20584;-82
2022/10/12 08:32:19;;;;;;;16.27;7.67;;;11.80;9.30;;;;;;4957441;28;20219;-83
2022/10/12 08:34:45;;;;;;;19.40;8.30;;;11.80;9.30;;;;;;4971427;28;20183;-84
2022/10/12 08:37:12;;;;;;;13.53;7.47;;;11.80;10.40;;;;;;4975702;28;20184;-85
2022/10/12 08:39:37;;;;;;;22.40;7.40;;;12.20;10.20;;;;;;4976004;28;20226;-83
2022/10/12 08:42:18;;;;;;;15.20;7.80;;;12.50;8.10;;;;;;4964076;28;20212;-84
2022/10/12 08:44:51;;;;;;;14.47;8.00;;;12.80;1.00;;;;;;4975135;28;20184;-83
2022/10/12 08:47:26;;;;;;;19.70;7.63;;;13.10;1.00;;;;;;4980334;28;20220;-87
2022/10/12 08:49:53;;;;;;;18.03;7.87;;;13.30;1.00;;;;;;4979284;28;20236;-82
2022/10/12 08:52:24;;;;;;;14.63;7.40;;;13.40;1.00;;;;;;4977857;28;20222;-87
2022/10/12 08:54:50;;;;;;;19.50;8.77;;;13.70;1.00;;;;;;4976104;28;20628;-85
2022/10/12 08:57:18;;;;;;;17.63;8.23;;;13.90;1.00;;;;;;4977138;28;20191;-84
2022/10/12 08:59:44;;;;;;;18.30;7.67;;;14.00;1.00;;;;;;4975766;28;20200;-86
2022/10/12 09:02:38;;;;;;;16.77;8.33;;;14.20;1.00;;;;;;4977857;28;20243;-86
2022/10/12 09:05:11;;;;;;;14.40;7.60;;;14.20;1.00;;;;;;4973108;28;20201;-81
2022/10/12 09:07:55;;;;;;;17.70;7.53;;;14.30;1.00;;;;;;4976378;28;20172;-85
2022/10/12 09:10:52;;;;;;;16.83;7.83;;;14.20;1.00;;;;;;4971969;28;20190;-85
2022/10/12 09:13:36;;;;;;;18.83;7.20;;;14.30;1.00;;;;;;4974980;28;20239;-83
2022/10/12 09:16:24;;;;;;;15.63;7.23;;;14.20;1.00;;;;;;4974249;28;20185;-82
2022/10/12 09:18:57;;;;;;;15.13;7.13;;;13.90;1.00;;;;;;4988099;28;20267;-82
2022/10/12 09:21:26;;;;;;;17.73;7.40;;;13.70;1.00;;;;;;4976127;28;20195;-85
2022/10/12 09:23:55;;;;;;;19.90;7.57;;;13.60;1.00;;;;;;4974066;28;20259;-83
2022/10/12 09:26:33;;;;;;;16.00;7.70;;;13.50;1.00;;;;;;4974716;28;20187;-83
2022/10/12 09:28:59;;;;;;;12.30;6.83;;;13.50;1.00;;;;;;4975557;28;20180;-81
2022/10/12 09:31:47;;;;;;;14.27;6.70;;;13.40;1.00;;;;;;4975018;28;20180;-83
2022/10/12 09:34:12;;;;;;;10.80;6.63;;;13.30;1.00;;;;;;4980464;28;20222;-83
2022/10/12 09:36:40;;;;;;;14.00;6.90;;;13.50;1.00;;;;;;4978533;28;20695;-86
2022/10/12 09:39:17;;;;;;;12.50;6.90;;;13.60;1.00;;;;;;4976356;28;20283;-86
2022/10/12 09:41:46;;;;;;;16.73;6.90;;;13.80;1.00;;;;;;4978299;28;20267;-83
2022/10/12 09:44:35;;;;;;;15.90;7.33;;;13.90;1.00;;;;;;4978033;28;20653;-87
2022/10/12 09:47:03;;;;;;;12.87;6.80;;;14.10;1.00;;;;;;4978443;28;20205;-85
2022/10/12 09:49:46;;;;;;;14.33;6.77;;;14.10;1.00;;;;;;4978291;28;20270;-87
2022/10/12 09:52:14;;;;;;;13.07;6.80;;;14.10;1.00;;;;;;4977069;28;20174;-87
2022/10/12 09:54:46;;;;;;;15.13;6.37;;;14.20;1.00;;;;;;4975554;28;20591;-86
2022/10/12 09:57:19;;;;;;;14.70;6.30;;;14.30;1.00;;;;;;4976808;28;20198;-87
2022/10/12 09:59:46;;;;;;;21.27;7.20;;;14.60;1.00;;;;;;4975387;28;20624;-85
2022/10/12 10:02:23;;;;;;;12.67;6.57;;;14.70;1.00;;;;;;4976561;28;20215;-87
2022/10/12 10:04:50;;;;;;;15.03;6.57;;;14.70;1.00;;;;;;4977210;28;20210;-85
2022/10/12 10:07:34;;;;;;;16.07;9.10;;;14.80;1.00;;;;;;4976966;28;20212;-85
2022/10/12 10:10:11;;;;;;;17.97;7.33;;;15.00;1.00;;;;;;4976726;28;20171;-86
2022/10/12 10:12:46;;;;;;;13.00;7.27;;;15.10;1.00;;;;;;4976265;28;20730;-86
2022/10/12 10:15:29;;;;;;;16.27;6.53;;;15.10;1.00;;;;;;4977148;28;20595;-88
2022/10/12 10:18:18;;;;;;;12.63;6.27;;;15.00;1.00;;;;;;4976681;28;20210;-86
2022/10/12 10:20:52;;;;;;;13.67;6.23;;;15.00;1.00;;;;;;4976881;28;20183;-85
2022/10/12 10:23:35;;;;;;;12.87;7.13;;;15.10;1.00;;;;;;4972328;28;20273;-86
2022/10/12 10:26:08;;;;;;;14.77;6.20;;;15.30;1.00;;;;;;4973172;28;20187;-87
2022/10/12 10:28:39;;;;;;;11.73;5.23;;;15.30;1.00;;;;;;4982979;28;20182;-82
2022/10/12 10:31:20;;;;;;;13.10;5.53;;;15.20;1.00;;;;;;4996011;28;20156;-83
2022/10/12 10:34:12;;;;;;;12.27;5.27;;;15.20;1.00;;;;;;4994816;28;20190;-83
2022/10/12 10:36:52;;;;;;;13.67;5.60;;;15.40;1.00;;;;;;4987215;28;20655;-82
2022/10/12 10:39:36;;;;;;;11.17;4.93;;;15.50;1.00;;;;;;4980620;28;20546;-81
2022/10/12 10:42:24;;;;;;;13.70;5.10;;;15.60;1.00;;;;;;4980423;28;20226;-85
2022/10/12 10:44:57;;;;;;;14.27;5.47;;;15.70;1.00;;;;;;4977616;28;20745;-86
2022/10/12 10:47:23;;;;;;;9.67;4.93;;;15.80;1.00;;;;;;4979927;28;20168;-86
2022/10/12 10:49:58;;;;;;;11.87;5.67;;;16.00;1.00;;;;;;4977782;28;20176;-85
2022/10/12 10:52:35;;;;;;;11.77;4.87;;;16.30;1.00;;;;;;4988770;28;20171;-87
2022/10/12 10:55:09;;;;;;;13.83;5.73;;;16.50;1.00;;;;;;4983095;28;20180;-83
2022/10/12 10:57:41;;;;;;;13.90;6.13;;;16.40;1.00;;;;;;4977929;28;20166;-81
2022/10/12 11:00:21;;;;;;;9.87;5.23;;;16.60;1.00;;;;;;4984613;28;20166;-85
2022/10/12 11:02:53;;;;;;;13.23;6.20;;;16.60;1.00;;;;;;4984947;28;20213;-85
2022/10/12 11:05:30;;;;;;;11.03;5.87;;;16.60;1.00;;;;;;4984440;28;20175;-87
2022/10/12 11:08:17;;;;;;;15.97;6.27;;;16.60;1.00;;;;;;4981192;28;20286;-83
2022/10/12 11:10:58;;;;;;;14.13;5.87;;;16.90;1.00;;;;;;4980280;28;20537;-88
2022/10/12 11:13:32;;;;;;;12.50;6.13;;;17.00;1.00;;;;;;4978975;28;20570;-88
2022/10/12 11:16:24;;;;;;;13.07;5.63;;;17.00;1.00;;;;;;4977382;28;20159;-89
2022/10/12 11:19:33;;;;;;;12.67;6.03;;;17.00;1.00;;;;;;4975597;28;20208;-86
2022/10/12 11:22:04;;;;;;;11.93;6.80;;;17.00;1.00;;;;;;4973288;28;20212;-82
2022/10/12 11:24:44;;;;;;;13.33;6.07;;;17.00;1.00;;;;;;4975520;28;20172;-82
2022/10/12 11:27:24;;;;;;;12.67;5.87;;;17.00;1.00;;;;;;4968257;28;20191;-82
2022/10/12 11:30:00;;;;;;;11.57;5.33;;;17.00;1.00;;;;;;4964478;28;20632;-84
2022/10/12 11:32:30;;;;;;;15.93;6.30;;;17.10;1.00;;;;;;4965500;28;20548;-83
2022/10/12 11:35:04;;;;;;;15.13;6.30;;;17.10;1.00;;;;;;4960837;28;20250;-87
2022/10/12 11:37:57;;;;;;;14.33;5.83;;;17.10;1.00;;;;;;4964977;28;20190;-87
2022/10/12 11:40:28;;;;;;;11.73;5.33;;;17.00;1.00;;;;;;4967176;28;20236;-84
2022/10/12 11:42:56;;;;;;;9.73;5.13;;;17.20;1.00;;;;;;4975394;28;20759;-81
2022/10/12 11:45:45;;;;;;;11.60;5.97;;;17.20;1.00;;;;;;4969370;28;20168;-84
2022/10/12 11:48:34;;;;;;;11.33;5.07;;;17.20;1.00;;;;;;4965981;28;20651;-87
2022/10/12 11:51:00;;;;;;;13.90;5.73;;;17.30;1.00;;;;;;4961239;28;20279;-86
2022/10/12 11:53:38;;;;;;;11.87;5.10;;;17.20;1.00;;;;;;4975460;28;20168;-86
2022/10/12 11:56:17;;;;;;;11.13;5.23;;;17.30;1.00;;;;;;4966496;28;20192;-82
2022/10/12 11:58:44;;;;;;;10.10;5.10;;;17.20;1.00;;;;;;4965001;28;20203;-82
2022/10/12 12:01:44;;;;;;;10.87;5.27;;;17.20;1.00;;;;;;4983129;28;20204;-85
2022/10/12 12:04:22;;;;;;;11.63;5.10;;;17.00;1.00;;;;;;4985286;28;20265;-82
2022/10/12 12:06:51;;;;;;;11.23;5.23;;;17.10;1.00;;;;;;4978214;28;20176;-83
2022/10/12 12:09:39;;;;;;;13.90;5.90;;;17.00;1.00;;;;;;4988487;28;20191;-82
2022/10/12 12:12:19;;;;;;;7.93;4.87;;;17.10;1.00;;;;;;4983698;28;20184;-86
2022/10/12 12:14:45;;;;;;;7.97;4.53;;;17.20;1.00;;;;;;4980322;28;20178;-83
2022/10/12 12:17:23;;;;;;;9.57;5.07;;;17.20;1.00;;;;;;4981962;28;20172;-82
2022/10/12 12:19:52;;;;;;;14.63;4.90;;;17.30;1.00;;;;;;4973484;28;20165;-87
2022/10/12 12:22:56;;;;;;;10.97;4.60;;;17.30;1.00;;;;;;4969562;28;20208;-86
2022/10/12 12:25:41;;;;;;;11.47;5.23;;;17.30;1.00;;;;;;4961118;28;20176;-86
2022/10/12 12:28:20;;;;;;;13.60;4.17;;;17.20;1.00;;;;;;4971594;28;20179;-85
2022/10/12 12:31:01;;;;;;;9.87;5.73;;;17.30;1.00;;;;;;4969204;28;20183;-84
2022/10/12 12:33:30;;;;;;;10.83;5.50;;;17.20;1.00;;;;;;4959642;28;20169;-85
2022/10/12 12:36:06;;;;;;;9.90;4.50;;;17.20;1.00;;;;;;4959878;28;20227;-85
2022/10/12 12:38:40;;;;;;;8.93;4.57;;;17.20;1.00;;;;;;4958542;28;20187;-84
2022/10/12 12:41:15;;;;;;;7.17;4.00;;;17.20;1.00;;;;;;4968689;28;20358;-84
2022/10/12 12:43:43;;;;;;;9.60;4.13;;;17.30;1.00;;;;;;4965507;28;20194;-86
2022/10/12 12:46:12;;;;;;;9.60;4.40;;;17.40;1.00;;;;;;4969031;28;20164;-86
2022/10/12 12:48:38;;;;;;;13.07;4.97;;;17.40;1.00;;;;;;4969827;28;20180;-85
2022/10/12 12:51:22;;;;;;;16.63;4.97;;;17.40;1.00;;;;;;4966577;28;20725;-86
2022/10/12 12:54:10;;;;;;;10.17;4.53;;;17.40;1.00;;;;;;4967434;28;20242;-87
2022/10/12 12:56:48;;;;;;;11.90;5.13;;;17.30;1.00;;;;;;4967851;28;20710;-84
2022/10/12 12:59:38;;;;;;;7.37;4.30;;;17.20;1.00;;;;;;4969753;28;20176;-86
2022/10/12 13:02:34;;;;;;;8.93;4.30;;;17.40;1.00;;;;;;4973066;28;20212;-87